Amidon, ND

11:36 AM MDT on April 19, 2015 (GMT -0600)
ND Hwy 67 & 84th St SW | | Change Station
CLOSE
Current Station
Personal Weather Station
Location: Scranton, ND
Elevation: 2900 ft
Nearby Weather Stations

Elev 2900 ft 46.21 °N, 103.14 °W | Updated 5 minutes ago

Mostly Cloudy
Mostly Cloudy
39.9 °F
Feels Like 28 °F
N
32.0
Wind Variable Wind from NNW

Today
High -- | Low -- °F
--% Chance of Precip.
Yesterday
High -- | Low -- °F
Precip. -- in
5:59 AM 7:46 PM
New Moon, 1% visible
Pressure 29.96 in
Visibility 10.0 miles
Clouds Scattered Clouds 2700 ft
Mostly Cloudy 3600 ft
Overcast 7000 ft
Windchill 28 °F
Dew Point 32 °F
Humidity 73%
Rainfall 0.00 in
Snow Depth Not available.
UV 2 out of 12
Pollen 10.50 out of 12
Air Quality Not available.
Flu Activity Regional
SPECI KDIK 191725Z AUTO 33021G29KT 10SM SCT027 BKN036 OVC070 06/01 A2996 RMK AO2 PK WND 32032/1711 T00560006

More Conditions Fewer Conditions

Pressure 29.96 in
Visibility 10.0 miles
Clouds Scattered Clouds 2700 ft
Mostly Cloudy 3600 ft
Overcast 7000 ft
Windchill 28 °F
Dew Point 32 °F
Humidity 73%
Rainfall 0.00 in
Snow Depth Not available.
UV 2 out of 12
Pollen 10.50 out of 12
Air Quality Not available.
Flu Activity Regional
SPECI KDIK 191725Z AUTO 33021G29KT 10SM SCT027 BKN036 OVC070 06/01 A2996 RMK AO2 PK WND 32032/1711 T00560006

More Conditions Fewer Conditions

10-Day Weather Forecast

Almanac

Astronomy

Apr. 19, 2015 Rise Set
Actual Time
Civil Twilight
Nautical Twilight
Astronomical Twilight
Moon
Length of Visible Light
Length of Day
Tomorrow will be .
, % of the Moon is Illuminated

Today's Extremes

State Highs State Lows

Community

WunderPhotos

Upload Photos

1,814,873 photos uploaded!

WunderBlogs® & News

Nearby

Air Quality

  Air Quality AQ Index Pollutant
Not available.

Snow Depth

Station Depth Elevation

Earthquake Activity

City Distance Mag. Time & Date
Minimum magnitude displayed is 2.5.

Coastal Water Temperatures

Place Temperature

Stations

Nearby Weather Stations

Station Location Temp. Windchill Dew Point Humidity Wind Precip. Elev Updated Type